Time;durP1;ratioP1;P1;durP2;ratioP2;P2;SDS_P1;SDS_P2;PMS_P1;PMS_P2;Temp;Humidity;BMP_temperature;BMP_pressure;BME280_temperature;BME280_humidity;BME280_pressure;Samples;Min_cycle;Max_cycle;Signal;HPM_P1;HPM_P2
2021/08/12 00:04:28;;;;;;;4.37;3.13;;;;;;;19.58;52.99;99476.13;263193;1091;115524;-63
2021/08/12 00:09:33;;;;;;;4.37;3.20;;;;;;;19.54;53.15;99485.52;263365;1093;115183;-64
2021/08/12 00:14:36;;;;;;;4.45;3.03;;;;;;;19.48;53.16;99489.63;263338;1092;115001;-63
2021/08/12 00:19:40;;;;;;;8.90;3.40;;;;;;;19.44;53.11;99490.91;263299;1092;116402;-62
2021/08/12 00:24:44;;;;;;;6.50;3.25;;;;;;;19.41;53.33;99495.73;263650;1092;115532;-64
2021/08/12 00:29:49;;;;;;;7.23;3.60;;;;;;;19.40;53.41;99502.98;263707;1092;116234;-59
2021/08/12 00:34:53;;;;;;;7.50;3.53;;;;;;;19.35;53.75;99497.98;263764;1092;115030;-59
2021/08/12 00:39:56;;;;;;;6.37;3.80;;;;;;;19.30;53.40;99505.66;263718;1093;115704;-61
2021/08/12 00:45:00;;;;;;;5.73;3.65;;;;;;;19.24;53.74;99500.81;263760;1092;115314;-61
2021/08/12 00:50:05;;;;;;;6.27;3.73;;;;;;;19.21;54.08;99509.19;262947;1092;115077;-59
2021/08/12 00:55:09;;;;;;;5.48;3.48;;;;;;;19.13;53.95;99512.58;262254;1093;114886;-60
2021/08/12 01:00:15;;;;;;;10.65;4.18;;;;;;;19.05;54.25;99507.00;263422;1092;115012;-60
2021/08/12 01:05:19;;;;;;;9.23;3.83;;;;;;;18.99;54.11;99512.97;263333;1093;115157;-62
2021/08/12 01:10:42;;;;;;;7.50;4.33;;;;;;;18.96;54.73;99512.40;263390;1092;115353;-60
2021/08/12 01:15:54;;;;;;;11.28;4.88;;;;;;;18.93;54.90;99513.52;263316;1093;115288;-63
2021/08/12 01:21:37;;;;;;;8.10;4.60;;;;;;;18.89;54.47;99510.24;263414;1093;115224;-64
2021/08/12 01:26:44;;;;;;;9.20;4.60;;;;;;;18.85;55.36;99516.91;263514;1093;114807;-61
2021/08/12 01:32:13;;;;;;;8.17;4.43;;;;;;;18.82;55.24;99514.47;263511;1093;115221;-63
2021/08/12 01:37:19;;;;;;;7.87;4.77;;;;;;;18.79;55.45;99521.98;263107;1093;114816;-62
2021/08/12 01:42:26;;;;;;;11.30;4.43;;;;;;;18.74;55.66;99519.67;263492;1093;115403;-60
2021/08/12 01:47:34;;;;;;;9.77;4.87;;;;;;;18.70;55.89;99511.97;263377;1092;115450;-61
2021/08/12 01:52:41;;;;;;;9.43;4.97;;;;;;;18.68;55.97;99509.39;263253;1092;115283;-63
2021/08/12 01:57:46;;;;;;;9.30;4.40;;;;;;;18.62;56.35;99516.20;263157;1093;115433;-61
2021/08/12 02:02:54;;;;;;;9.83;4.60;;;;;;;18.60;56.42;99517.31;263679;1092;114621;-65
2021/08/12 02:07:59;;;;;;;8.43;4.73;;;;;;;18.57;56.44;99523.82;263515;1092;115066;-63
2021/08/12 02:13:05;;;;;;;9.35;4.68;;;;;;;18.51;56.71;99521.69;263773;1092;115082;-65
2021/08/12 02:18:10;;;;;;;7.23;4.57;;;;;;;18.44;56.75;99529.45;263334;1093;115233;-67
2021/08/12 02:23:21;;;;;;;16.35;6.30;;;;;;;18.39;57.02;99518.20;263595;1093;115321;-63
2021/08/12 02:28:28;;;;;;;10.40;4.77;;;;;;;18.34;56.90;99524.96;263646;1093;115238;-61
2021/08/12 02:33:36;;;;;;;9.03;4.70;;;;;;;18.30;57.35;99518.14;263030;1093;115395;-64
2021/08/12 02:38:44;;;;;;;7.67;5.00;;;;;;;18.27;57.16;99510.31;262911;1091;115063;-63
2021/08/12 02:43:50;;;;;;;13.53;5.00;;;;;;;18.23;57.25;99519.66;262894;1092;115468;-62
2021/08/12 02:48:56;;;;;;;14.20;5.43;;;;;;;18.13;57.00;99515.05;263138;1093;115500;-61
2021/08/12 02:54:00;;;;;;;8.30;5.07;;;;;;;18.10;57.30;99522.54;263254;1092;115319;-62
2021/08/12 02:59:05;;;;;;;9.25;5.35;;;;;;;18.04;57.02;99525.78;263408;1092;115129;-65
2021/08/12 03:04:09;;;;;;;13.50;5.07;;;;;;;17.96;57.25;99531.80;263182;1093;114897;-62
2021/08/12 03:09:14;;;;;;;9.97;4.80;;;;;;;17.87;57.36;99540.67;263670;1093;115484;-63
2021/08/12 03:14:20;;;;;;;8.53;5.20;;;;;;;17.80;57.35;99534.95;263004;1092;115052;-63
2021/08/12 03:19:25;;;;;;;8.77;4.60;;;;;;;17.75;57.24;99531.74;262599;1093;115494;-62
2021/08/12 03:24:32;;;;;;;10.07;4.60;;;;;;;17.75;57.50;99529.05;263385;1093;115820;-65
2021/08/12 03:29:42;;;;;;;10.90;5.27;;;;;;;17.77;57.68;99528.97;262888;1092;115732;-65
2021/08/12 03:34:47;;;;;;;12.53;6.03;;;;;;;17.77;57.89;99534.36;263349;1093;115432;-67
2021/08/12 03:39:51;;;;;;;15.57;5.63;;;;;;;17.74;57.71;99541.66;263165;1093;115886;-65
2021/08/12 03:44:55;;;;;;;12.57;5.13;;;;;;;17.70;57.95;99545.59;263086;1093;115349;-62
2021/08/12 03:49:59;;;;;;;12.93;6.00;;;;;;;17.68;57.65;99552.94;262734;1093;115014;-63
2021/08/12 03:55:03;;;;;;;16.10;5.60;;;;;;;17.65;58.03;99547.80;263164;1092;115168;-65
2021/08/12 04:00:07;;;;;;;38.45;31.43;;;;;;;17.76;58.39;99559.52;263232;1092;115267;-62
2021/08/12 04:05:15;;;;;;;14.70;8.97;;;;;;;18.18;59.27;99560.47;263468;1092;116402;-63
2021/08/12 04:10:18;;;;;;;12.47;7.47;;;;;;;18.57;58.88;99558.86;263223;1092;115542;-64
2021/08/12 04:15:26;;;;;;;56.23;37.97;;;;;;;18.85;58.74;99560.05;263495;1092;115491;-66
2021/08/12 04:20:29;;;;;;;17.50;11.63;;;;;;;18.91;57.82;99567.58;263097;1092;115047;-65
2021/08/12 04:25:35;;;;;;;15.90;8.38;;;;;;;19.04;58.24;99570.05;263526;1092;115774;-65
2021/08/12 04:30:39;;;;;;;116.73;86.43;;;;;;;19.18;57.55;99566.13;263142;1093;115053;-68
2021/08/12 04:35:43;;;;;;;13.68;8.10;;;;;;;19.12;57.28;99569.36;263579;1092;116056;-64
2021/08/12 04:40:48;;;;;;;17.77;6.63;;;;;;;18.86;56.54;99569.84;263539;1090;115185;-68
2021/08/12 04:45:52;;;;;;;14.33;5.78;;;;;;;18.71;56.99;99581.08;263191;1092;115389;-71
2021/08/12 04:50:55;;;;;;;14.45;5.88;;;;;;;18.61;57.06;99583.71;263646;1093;115613;-68
2021/08/12 04:55:59;;;;;;;12.17;5.33;;;;;;;18.47;57.31;99592.99;263684;1092;115185;-63
2021/08/12 05:01:05;;;;;;;9.90;5.37;;;;;;;18.34;57.50;99592.33;262876;1092;115463;-64
2021/08/12 05:06:11;;;;;;;9.98;5.53;;;;;;;18.20;57.36;99594.36;263335;1093;114715;-62
2021/08/12 05:11:15;;;;;;;14.23;5.40;;;;;;;18.21;57.51;99603.32;263631;1093;114997;-66
2021/08/12 05:16:20;;;;;;;15.73;5.85;;;;;;;18.25;57.55;99609.30;263517;1093;117768;-66
2021/08/12 05:21:24;;;;;;;17.40;5.73;;;;;;;18.24;57.64;99607.57;263371;1093;115207;-67
2021/08/12 05:26:33;;;;;;;11.90;5.23;;;;;;;18.26;57.67;99616.39;263468;1092;115580;-66
2021/08/12 05:31:38;;;;;;;19.38;5.28;;;;;;;18.34;57.61;99609.38;263065;1092;115243;-68
2021/08/12 05:36:42;;;;;;;;;;;;;;;18.46;57.76;99610.16;263312;1093;115637;-60
2021/08/12 05:41:46;;;;;;;12.03;5.60;;;;;;;18.49;57.32;99603.66;263838;1093;103065;-63
2021/08/12 05:46:50;;;;;;;13.53;5.33;;;;;;;18.54;57.31;99613.04;262671;1093;115323;-63
2021/08/12 05:51:54;;;;;;;15.75;5.65;;;;;;;18.55;57.53;99611.23;263621;1093;115548;-64
2021/08/12 05:56:58;;;;;;;17.87;5.40;;;;;;;18.60;57.43;99609.82;263309;1091;115082;-64
2021/08/12 06:02:01;;;;;;;16.45;5.50;;;;;;;18.65;57.66;99607.59;262735;1092;115151;-64
2021/08/12 06:07:09;;;;;;;10.87;5.17;;;;;;;18.71;57.32;99606.19;262794;1092;115739;-62
2021/08/12 06:12:13;;;;;;;12.00;5.33;;;;;;;18.79;57.58;99608.28;262992;1093;115884;-60
2021/08/12 06:17:17;;;;;;;16.50;5.10;;;;;;;18.88;57.70;99607.45;263473;1092;115443;-64
2021/08/12 06:22:21;;;;;;;10.73;4.80;;;;;;;18.99;57.31;99609.23;263495;1092;115534;-60
2021/08/12 06:27:25;;;;;;;14.95;5.73;;;;;;;19.08;57.17;99609.25;263171;1092;115257;-64
2021/08/12 06:32:29;;;;;;;8.10;5.17;;;;;;;19.20;57.26;99617.27;263582;1093;114885;-65
2021/08/12 06:37:43;;;;;;;12.40;5.47;;;;;;;19.28;57.52;99614.73;263500;1092;115231;-67
2021/08/12 06:42:48;;;;;;;12.58;4.80;;;;;;;19.37;57.46;99612.08;263536;1092;115424;-66
2021/08/12 06:47:54;;;;;;;12.27;5.63;;;;;;;19.49;57.24;99618.20;263166;1093;115047;-66
2021/08/12 06:53:00;;;;;;;10.43;5.27;;;;;;;19.60;57.32;99615.42;263087;1093;115268;-61
2021/08/12 06:58:04;;;;;;;12.75;5.10;;;;;;;19.69;56.99;99615.59;263594;1092;115486;-64
2021/08/12 07:03:07;;;;;;;10.28;4.13;;;;;;;19.81;56.75;99622.59;263343;1093;114743;-62
2021/08/12 07:08:11;;;;;;;60.83;45.98;;;;;;;19.90;56.69;99618.19;263023;1092;115865;-67
2021/08/12 07:13:16;;;;;;;16.60;8.68;;;;;;;20.10;56.64;99622.61;263058;1093;116034;-60
2021/08/12 07:18:20;;;;;;;15.60;10.57;;;;;;;20.27;56.16;99621.89;263767;1093;115286;-63
2021/08/12 07:23:27;;;;;;;10.88;7.35;;;;;;;20.41;55.95;99631.42;263628;1093;114949;-62
2021/08/12 07:28:31;;;;;;;7.37;4.73;;;;;;;20.51;55.48;99621.48;263489;1092;115664;-66
2021/08/12 07:33:38;;;;;;;8.63;4.18;;;;;;;20.60;55.12;99632.45;263552;1092;114948;-65
2021/08/12 07:38:42;;;;;;;8.23;4.20;;;;;;;20.71;54.86;99626.86;263176;1092;114626;-65
2021/08/12 07:43:46;;;;;;;7.98;4.40;;;;;;;20.82;54.70;99631.25;263470;1092;115502;-64
2021/08/12 07:48:53;;;;;;;7.00;3.90;;;;;;;20.86;54.40;99636.24;263869;1093;114947;-64
2021/08/12 07:53:59;;;;;;;156.80;110.93;;;;;;;20.98;54.63;99634.20;262974;1093;114783;-63
2021/08/12 07:59:03;;;;;;;10.55;7.10;;;;;;;21.10;54.35;99632.19;263876;1092;115549;-64
2021/08/12 08:04:08;;;;;;;22.10;15.33;;;;;;;21.19;54.15;99632.13;263865;1092;115590;-65
2021/08/12 08:09:11;;;;;;;8.78;4.40;;;;;;;21.29;53.86;99633.95;263903;1092;115469;-64
2021/08/12 08:14:15;;;;;;;15.20;8.65;;;;;;;21.40;53.77;99641.90;263496;1093;114903;-66
2021/08/12 08:19:19;;;;;;;394.75;310.38;;;;;;;21.49;53.67;99649.98;263687;1093;115014;-62
2021/08/12 08:24:23;;;;;;;75.75;53.43;;;;;;;21.58;53.18;99645.53;263184;1092;115842;-65
2021/08/12 08:29:26;;;;;;;11.33;7.45;;;;;;;21.68;53.37;99642.77;263825;1093;115227;-64
2021/08/12 08:34:30;;;;;;;21.15;7.58;;;;;;;21.76;52.96;99653.70;262840;1092;115281;-61
2021/08/12 08:39:34;;;;;;;25.93;13.65;;;;;;;21.82;52.90;99650.39;263434;1092;115737;-60
2021/08/12 08:44:45;;;;;;;7.93;4.17;;;;;;;21.88;52.77;99647.08;263319;1093;115392;-65
2021/08/12 08:49:49;;;;;;;9.83;5.70;;;;;;;21.98;52.90;99644.30;263226;1092;115246;-62
2021/08/12 08:54:54;;;;;;;6.28;3.45;;;;;;;22.05;52.53;99649.97;263933;1092;114750;-61
2021/08/12 08:59:58;;;;;;;4.35;2.95;;;;;;;22.09;51.74;99662.20;262922;1092;115243;-61
2021/08/12 09:05:02;;;;;;;3.27;2.67;;;;;;;22.08;51.48;99649.63;263627;1091;114712;-59
2021/08/12 09:10:06;;;;;;;6.73;3.10;;;;;;;22.05;51.26;99655.38;263796;1093;115217;-61
2021/08/12 09:15:13;;;;;;;4.18;2.60;;;;;;;22.09;51.53;99662.20;263840;1092;115061;-63
2021/08/12 09:20:22;;;;;;;4.53;2.77;;;;;;;22.11;51.06;99661.05;263296;1092;114869;-61
2021/08/12 09:25:40;;;;;;;4.90;2.73;;;;;;;22.16;50.48;99664.16;263896;1093;114870;-61
2021/08/12 09:31:02;;;;;;;4.30;3.00;;;;;;;22.25;50.20;99659.69;262816;1092;115127;-64
2021/08/12 09:36:24;;;;;;;3.67;2.47;;;;;;;22.34;49.90;99656.02;263874;1093;115240;-65
2021/08/12 09:41:49;;;;;;;4.93;2.80;;;;;;;22.46;50.16;99653.09;263856;1092;114897;-64
2021/08/12 09:46:57;;;;;;;209.33;150.03;;;;;;;22.61;50.16;99656.94;263456;1092;115008;-62
2021/08/12 09:52:17;;;;;;;9.40;7.17;;;;;;;22.72;49.78;99661.25;263943;1092;115879;-62
2021/08/12 09:57:21;;;;;;;7.07;4.20;;;;;;;22.71;49.42;99663.13;263498;1092;114595;-63
2021/08/12 10:02:31;;;;;;;4.57;3.27;;;;;;;22.78;49.58;99653.34;263340;1093;114626;-62
2021/08/12 10:07:42;;;;;;;11.50;3.28;;;;;;;22.81;49.14;99652.17;263468;1092;115318;-62
2021/08/12 10:12:49;;;;;;;5.37;2.83;;;;;;;22.84;48.77;99657.29;263892;1093;115726;-63
2021/08/12 10:17:58;;;;;;;5.80;2.90;;;;;;;22.79;48.41;99665.04;263873;1092;114983;-63
2021/08/12 10:23:04;;;;;;;5.67;2.97;;;;;;;22.83;48.79;99653.73;263909;1093;114898;-65
2021/08/12 10:28:10;;;;;;;6.77;4.17;;;;;;;22.96;48.43;99647.92;263868;1091;114753;-63
2021/08/12 10:33:15;;;;;;;9.63;3.17;;;;;;;23.16;48.34;99653.95;262725;1092;114685;-61
2021/08/12 10:38:19;;;;;;;6.28;3.20;;;;;;;23.27;47.82;99664.56;263969;1092;115021;-64
2021/08/12 10:43:27;;;;;;;4.20;3.00;;;;;;;23.42;47.52;99653.09;263477;1091;115958;-62
2021/08/12 10:48:32;;;;;;;6.40;2.83;;;;;;;23.41;47.05;99656.83;263662;1092;114781;-62
2021/08/12 10:54:15;;;;;;;;;;;;;;;23.59;46.86;99652.14;263638;1092;115429;-63
2021/08/12 10:59:37;;;;;;;3.87;2.60;;;;;;;23.80;47.03;99649.02;263805;1092;101431;-63
2021/08/12 11:04:57;;;;;;;5.67;2.23;;;;;;;24.03;46.89;99649.25;263932;1093;116304;-66
2021/08/12 11:10:22;;;;;;;2.90;2.30;;;;;;;24.30;46.24;99645.39;263486;1092;115030;-64
2021/08/12 11:15:51;;;;;;;3.97;2.83;;;;;;;24.60;45.72;99652.07;263175;1092;114837;-64
2021/08/12 11:20:54;;;;;;;6.43;2.73;;;;;;;24.53;45.05;99651.05;263276;1093;115109;-63
2021/08/12 11:26:08;;;;;;;3.35;2.63;;;;;;;24.49;44.93;99645.10;262829;1093;114826;-63
2021/08/12 11:31:20;;;;;;;3.77;2.53;;;;;;;24.35;44.78;99656.59;263852;1092;114993;-64
2021/08/12 11:36:29;;;;;;;5.00;2.90;;;;;;;24.36;44.40;99655.60;263537;1092;115251;-61
2021/08/12 11:41:38;;;;;;;5.40;3.40;;;;;;;24.26;44.19;99647.59;263859;1093;115333;-61
2021/08/12 11:46:43;;;;;;;9.63;3.57;;;;;;;24.43;44.35;99643.05;263858;1093;114968;-62
2021/08/12 11:51:47;;;;;;;6.27;3.30;;;;;;;24.71;44.41;99650.88;263858;1092;115000;-63
2021/08/12 11:56:51;;;;;;;7.15;3.93;;;;;;;24.93;44.01;99628.39;263931;1092;115307;-64
2021/08/12 12:01:56;;;;;;;7.73;3.63;;;;;;;24.98;43.75;99641.48;263951;1093;115549;-61
2021/08/12 12:07:00;;;;;;;82.07;61.53;;;;;;;24.89;43.63;99634.34;263599;1092;115077;-62
2021/08/12 12:12:09;;;;;;;13.97;10.57;;;;;;;24.79;44.02;99646.25;263473;1092;115209;-62
2021/08/12 12:17:15;;;;;;;13.37;7.40;;;;;;;24.80;43.56;99630.80;263891;1092;115292;-62
2021/08/12 12:22:23;;;;;;;9.33;4.13;;;;;;;24.74;42.93;99628.75;263296;1091;115614;-62
2021/08/12 12:27:28;;;;;;;6.53;3.90;;;;;;;24.73;43.00;99629.78;263435;1093;116040;-61
2021/08/12 12:32:32;;;;;;;8.17;3.63;;;;;;;24.73;43.23;99625.19;263811;1093;115113;-64
2021/08/12 12:37:39;;;;;;;8.25;3.20;;;;;;;24.97;43.19;99620.73;263846;1092;114906;-62
2021/08/12 12:42:43;;;;;;;5.97;3.23;;;;;;;25.31;42.87;99619.64;263908;1093;115035;-62
2021/08/12 12:47:47;;;;;;;;;;;;;;;25.57;42.80;99614.73;262804;1092;115275;-61
2021/08/12 12:53:04;;;;;;;13.03;4.37;;;;;;;25.89;43.30;99607.46;262759;1093;102904;-60
2021/08/12 12:58:20;;;;;;;29.67;18.13;;;;;;;26.03;42.68;99603.95;263096;1092;116145;-63
2021/08/12 13:03:41;;;;;;;17.03;10.43;;;;;;;25.85;42.83;99603.38;263484;1092;115217;-61
2021/08/12 13:08:48;;;;;;;7.93;5.10;;;;;;;25.74;42.44;99607.33;262721;1091;115329;-61
2021/08/12 13:13:52;;;;;;;7.40;4.33;;;;;;;25.94;42.76;99603.14;263977;1093;115189;-61
2021/08/12 13:18:59;;;;;;;;;;;;;;;26.20;42.58;99593.77;263928;1092;115283;-59
2021/08/12 13:24:11;;;;;;;4.57;3.80;;;;;;;26.48;42.51;99595.96;263862;1093;101801;-59
2021/08/12 13:29:18;;;;;;;6.70;4.77;;;;;;;26.74;41.99;99590.94;263331;1093;115495;-60
2021/08/12 13:34:23;;;;;;;6.00;3.80;;;;;;;26.91;40.81;99594.36;262957;1092;115200;-62
2021/08/12 13:39:27;;;;;;;6.40;3.60;;;;;;;27.12;40.85;99582.67;263189;1093;115363;-63
2021/08/12 13:44:33;;;;;;;6.43;3.80;;;;;;;27.33;40.87;99584.67;263665;1092;115102;-61
2021/08/12 13:49:37;;;;;;;4.87;3.53;;;;;;;27.47;40.32;99586.53;263674;1092;116254;-60
2021/08/12 13:54:42;;;;;;;7.45;3.93;;;;;;;27.52;40.14;99585.98;263589;1092;115027;-60
2021/08/12 13:59:46;;;;;;;9.17;3.93;;;;;;;27.63;40.10;99584.64;263518;1092;115395;-60
2021/08/12 14:04:50;;;;;;;8.90;3.90;;;;;;;27.77;39.71;99583.78;263183;1092;115107;-62
2021/08/12 14:09:53;;;;;;;8.57;3.70;;;;;;;27.87;40.26;99573.37;263194;1092;115367;-61
2021/08/12 14:14:57;;;;;;;10.43;4.03;;;;;;;27.89;39.27;99584.98;263131;1092;115335;-64
2021/08/12 14:20:01;;;;;;;8.55;4.20;;;;;;;27.99;39.56;99593.72;263599;1092;115365;-64
2021/08/12 14:25:05;;;;;;;7.83;3.98;;;;;;;28.05;39.39;99586.59;263383;1093;115305;-62
2021/08/12 14:30:09;;;;;;;5.60;3.40;;;;;;;28.05;38.74;99576.49;263123;1092;115004;-61
2021/08/12 14:35:13;;;;;;;17.55;11.43;;;;;;;28.03;38.54;99584.07;263332;1092;115730;-60
2021/08/12 14:40:19;;;;;;;8.73;5.45;;;;;;;27.92;37.89;99584.59;262553;1092;115958;-61
2021/08/12 14:45:23;;;;;;;7.60;5.27;;;;;;;27.69;38.49;99584.72;263332;1092;115032;-63
2021/08/12 14:50:27;;;;;;;5.47;3.70;;;;;;;27.43;38.23;99581.65;263125;1092;114722;-62
2021/08/12 14:55:31;;;;;;;4.53;2.90;;;;;;;27.15;37.96;99590.53;263492;1093;115688;-58
2021/08/12 15:00:34;;;;;;;5.45;4.13;;;;;;;26.88;37.74;99589.27;263655;1093;114691;-58
2021/08/12 15:05:39;;;;;;;8.97;3.80;;;;;;;26.65;37.50;99589.31;263248;1092;114889;-61
2021/08/12 15:10:43;;;;;;;;;;;;;;;26.43;37.57;99588.30;263106;1092;115058;-60
2021/08/12 15:15:49;;;;;;;5.77;3.50;;;;;;;26.24;37.90;99580.61;263498;1092;102894;-62
2021/08/12 15:20:54;;;;;;;6.00;3.20;;;;;;;26.08;37.75;99574.23;263657;1092;116066;-62
2021/08/12 15:25:57;;;;;;;5.00;2.97;;;;;;;25.91;37.73;99572.66;263410;1093;116136;-60
2021/08/12 15:31:01;;;;;;;10.53;7.15;;;;;;;25.77;37.83;99579.70;263732;1093;114822;-64
2021/08/12 15:36:04;;;;;;;8.50;6.05;;;;;;;25.66;38.38;99574.66;263058;1091;115426;-59
2021/08/12 15:41:11;;;;;;;9.15;4.25;;;;;;;25.55;38.68;99570.47;263533;1093;115894;-60
2021/08/12 15:46:15;;;;;;;7.67;4.53;;;;;;;25.45;38.52;99572.56;263261;1092;115217;-61
2021/08/12 15:51:19;;;;;;;5.38;3.30;;;;;;;25.37;38.54;99580.77;263563;1092;115069;-59
2021/08/12 15:56:25;;;;;;;9.93;6.63;;;;;;;25.28;38.79;99585.41;263535;1093;115728;-59
2021/08/12 16:01:28;;;;;;;6.05;4.03;;;;;;;25.22;38.84;99580.66;263673;1093;115330;-59
2021/08/12 16:06:32;;;;;;;4.08;3.00;;;;;;;25.17;39.10;99581.20;263407;1093;115205;-61
2021/08/12 16:11:37;;;;;;;64.43;57.35;;;;;;;25.10;38.94;99572.00;262986;1092;115365;-60
2021/08/12 16:16:40;;;;;;;52.93;41.73;;;;;;;25.08;39.19;99584.09;262718;1093;115794;-59
2021/08/12 16:21:45;;;;;;;21.58;14.28;;;;;;;25.04;39.39;99578.15;263713;1093;115664;-60
2021/08/12 16:26:51;;;;;;;17.97;13.47;;;;;;;24.97;39.51;99577.16;263464;1092;115285;-58
2021/08/12 16:31:54;;;;;;;8.10;6.85;;;;;;;24.93;39.50;99576.66;263582;1093;115607;-59
2021/08/12 16:36:58;;;;;;;297.08;248.98;;;;;;;24.91;39.49;99594.18;263401;1093;115405;-60
2021/08/12 16:42:06;;;;;;;29.23;22.07;;;;;;;24.89;39.68;99590.77;263688;1093;115655;-61
2021/08/12 16:47:10;;;;;;;51.38;39.98;;;;;;;24.88;39.57;99592.64;263366;1093;115792;-59
2021/08/12 16:52:13;;;;;;;123.93;107.05;;;;;;;24.86;39.96;99591.95;263107;1093;115552;-61
2021/08/12 16:57:17;;;;;;;20.88;16.38;;;;;;;24.83;40.07;99592.33;263588;1092;115874;-60
2021/08/12 17:02:21;;;;;;;56.95;46.25;;;;;;;24.81;40.28;99585.35;263465;1092;115557;-59
2021/08/12 17:07:24;;;;;;;214.15;179.03;;;;;;;24.75;40.86;99584.16;263659;1093;116164;-61
2021/08/12 17:12:28;;;;;;;18.23;15.80;;;;;;;24.67;41.27;99584.19;263403;1093;116435;-60
2021/08/12 17:17:32;;;;;;;16.00;11.68;;;;;;;24.59;41.66;99584.18;263480;1092;115483;-59
2021/08/12 17:22:35;;;;;;;174.78;127.83;;;;;;;24.47;41.77;99587.27;263761;1093;115614;-61
2021/08/12 17:27:39;;;;;;;33.08;24.78;;;;;;;24.38;42.09;99585.52;263469;1092;116406;-63
2021/08/12 17:32:43;;;;;;;154.05;119.40;;;;;;;24.27;42.29;99591.31;263467;1093;115463;-61
2021/08/12 17:37:46;;;;;;;14.08;11.28;;;;;;;24.16;42.43;99578.91;263766;1092;115793;-61
2021/08/12 17:42:50;;;;;;;13.88;7.83;;;;;;;24.06;42.47;99589.09;263652;1092;115829;-60
2021/08/12 17:47:54;;;;;;;8.60;6.60;;;;;;;23.95;43.03;99600.30;263429;1092;115774;-60
2021/08/12 17:52:58;;;;;;;532.30;450.65;;;;;;;23.83;43.27;99594.32;263297;1092;115033;-61
2021/08/12 17:58:02;;;;;;;29.75;21.70;;;;;;;23.69;43.60;99592.25;263491;1092;115401;-60
2021/08/12 18:03:05;;;;;;;10.73;6.75;;;;;;;23.55;43.85;99590.99;263638;1093;115161;-60
2021/08/12 18:08:10;;;;;;;29.85;20.43;;;;;;;23.43;44.35;99604.01;263540;1093;115579;-62
2021/08/12 18:13:14;;;;;;;26.13;20.83;;;;;;;23.34;44.67;99600.42;263373;1092;115219;-60
2021/08/12 18:18:17;;;;;;;215.25;177.60;;;;;;;23.26;44.86;99604.95;263583;1092;115331;-61
2021/08/12 18:23:21;;;;;;;37.37;28.40;;;;;;;23.17;45.06;99614.95;263571;1093;115983;-62
2021/08/12 18:28:25;;;;;;;15.28;10.43;;;;;;;23.07;45.41;99614.21;263593;1092;116166;-63
2021/08/12 18:33:28;;;;;;;6.65;5.38;;;;;;;22.99;45.64;99622.29;263268;1093;115572;-63
2021/08/12 18:38:35;;;;;;;249.93;205.43;;;;;;;22.86;45.48;99622.67;263490;1093;115036;-64
2021/08/12 18:43:39;;;;;;;26.33;19.87;;;;;;;22.73;45.99;99625.84;263121;1093;115835;-64
2021/08/12 18:48:43;;;;;;;9.30;5.88;;;;;;;22.58;46.19;99624.69;263538;1093;115889;-64
2021/08/12 18:53:47;;;;;;;13.55;5.50;;;;;;;22.45;46.50;99622.38;263505;1092;115555;-64
2021/08/12 18:58:51;;;;;;;9.03;5.53;;;;;;;22.32;46.92;99620.09;263627;1092;115478;-64
2021/08/12 19:03:54;;;;;;;9.93;6.58;;;;;;;22.19;47.31;99636.74;263325;1092;115735;-64
2021/08/12 19:08:59;;;;;;;15.80;5.95;;;;;;;22.07;48.02;99637.09;263231;1093;114853;-65
2021/08/12 19:14:03;;;;;;;15.55;6.18;;;;;;;21.95;48.25;99639.19;263371;1092;115589;-65
2021/08/12 19:19:07;;;;;;;454.98;391.13;;;;;;;21.84;48.70;99640.26;263539;1093;115363;-65
2021/08/12 19:24:10;;;;;;;41.63;25.18;;;;;;;21.73;49.36;99649.42;263126;1093;116376;-64
2021/08/12 19:29:14;;;;;;;25.43;8.88;;;;;;;21.62;49.86;99659.63;263495;1093;115851;-63
2021/08/12 19:34:17;;;;;;;19.23;8.18;;;;;;;21.52;49.89;99661.53;262708;1092;115574;-64
2021/08/12 19:39:21;;;;;;;13.58;7.75;;;;;;;21.42;50.25;99664.28;263400;1093;115520;-62
2021/08/12 19:44:25;;;;;;;16.65;8.00;;;;;;;21.29;50.84;99666.44;263450;1092;116077;-63
2021/08/12 19:49:29;;;;;;;34.35;13.73;;;;;;;21.12;51.08;99666.20;262919;1092;115485;-63
2021/08/12 19:54:32;;;;;;;16.73;7.50;;;;;;;20.97;51.46;99670.39;263145;1092;115384;-62
2021/08/12 19:59:37;;;;;;;24.33;8.68;;;;;;;20.83;51.73;99671.70;263303;1092;115268;-63
2021/08/12 20:04:40;;;;;;;25.55;9.28;;;;;;;20.70;52.32;99674.70;263743;1092;115378;-61
2021/08/12 20:09:44;;;;;;;26.10;10.87;;;;;;;20.57;52.63;99682.26;263472;1093;115196;-62
2021/08/12 20:14:48;;;;;;;20.88;9.85;;;;;;;20.45;52.95;99686.94;263628;1093;115519;-61
2021/08/12 20:19:51;;;;;;;25.18;10.65;;;;;;;20.31;53.28;99688.22;263751;1092;115304;-60
2021/08/12 20:24:55;;;;;;;23.80;11.55;;;;;;;20.21;53.84;99683.77;263812;1091;114981;-64
2021/08/12 20:29:59;;;;;;;19.47;10.40;;;;;;;20.12;53.96;99682.78;263734;1092;115215;-60
2021/08/12 20:35:03;;;;;;;19.80;11.70;;;;;;;20.01;54.21;99682.92;262693;1092;115411;-62
2021/08/12 20:40:08;;;;;;;13.60;8.78;;;;;;;19.93;54.19;99686.30;263644;1091;115522;-62
2021/08/12 20:45:11;;;;;;;16.80;9.27;;;;;;;19.83;54.40;99691.67;263588;1093;115298;-60
2021/08/12 20:50:15;;;;;;;16.98;9.88;;;;;;;19.76;54.34;99686.97;263848;1093;114961;-60
2021/08/12 20:55:18;;;;;;;19.30;10.43;;;;;;;19.72;54.98;99683.69;263546;1093;115570;-59
2021/08/12 21:00:22;;;;;;;19.93;10.35;;;;;;;19.66;54.94;99683.38;262957;1092;115941;-61
2021/08/12 21:05:32;;;;;;;20.70;10.10;;;;;;;19.58;55.14;99687.59;263537;1093;115530;-61
2021/08/12 21:10:36;;;;;;;17.73;9.57;;;;;;;19.50;55.37;99682.03;263455;1092;115321;-60
2021/08/12 21:15:40;;;;;;;19.48;10.53;;;;;;;19.38;55.55;99675.86;263490;1093;115652;-61
2021/08/12 21:20:43;;;;;;;26.48;10.25;;;;;;;19.27;55.64;99673.27;263403;1092;115417;-60
2021/08/12 21:25:48;;;;;;;25.88;11.03;;;;;;;19.21;56.07;99678.34;263608;1093;115364;-61
2021/08/12 21:30:51;;;;;;;30.50;11.50;;;;;;;19.14;55.87;99672.63;263453;1093;115557;-61
2021/08/12 21:35:55;;;;;;;20.73;10.90;;;;;;;19.05;56.22;99682.36;263378;1092;115330;-59
2021/08/12 21:40:58;;;;;;;30.13;11.53;;;;;;;19.01;56.23;99674.69;263723;1092;115775;-60
2021/08/12 21:46:03;;;;;;;21.93;9.60;;;;;;;18.95;56.43;99673.36;263760;1093;115637;-62
2021/08/12 21:51:07;;;;;;;;;;;;;;;18.89;56.92;99673.92;263798;1092;115571;-62
2021/08/12 21:56:10;;;;;;;19.80;10.60;;;;;;;18.85;57.29;99673.33;263801;1093;105900;-61
2021/08/12 22:01:16;;;;;;;18.60;10.38;;;;;;;18.86;57.05;99682.27;263736;1093;115489;-61
2021/08/12 22:06:21;;;;;;;17.00;10.47;;;;;;;18.81;57.50;99692.58;262525;1092;115268;-60
2021/08/12 22:11:26;;;;;;;19.08;11.00;;;;;;;18.75;57.37;99693.98;263346;1092;115012;-61
2021/08/12 22:16:35;;;;;;;17.03;10.73;;;;;;;18.68;57.48;99699.02;262201;1092;115147;-62
2021/08/12 22:21:40;;;;;;;16.73;10.67;;;;;;;18.60;57.39;99700.64;262725;1092;115357;-60
2021/08/12 22:26:44;;;;;;;18.95;10.65;;;;;;;18.54;58.08;99696.61;263553;1093;115538;-62
2021/08/12 22:31:48;;;;;;;20.73;11.08;;;;;;;18.44;58.22;99693.86;262327;1091;115001;-64
2021/08/12 22:36:52;;;;;;;21.60;10.10;;;;;;;18.34;58.40;99694.73;262540;1093;115302;-61
2021/08/12 22:41:56;;;;;;;20.43;10.50;;;;;;;18.31;58.28;99706.65;262825;1092;115857;-61
2021/08/12 22:47:01;;;;;;;22.03;11.18;;;;;;;18.27;58.74;99709.70;263665;1093;115064;-61
2021/08/12 22:52:05;;;;;;;22.77;11.63;;;;;;;18.20;58.98;99706.66;263491;1092;115590;-61
2021/08/12 22:57:09;;;;;;;20.25;11.38;;;;;;;18.19;59.16;99700.42;263143;1092;115307;-63
2021/08/12 23:02:13;;;;;;;19.35;11.43;;;;;;;18.15;58.84;99708.91;263728;1093;115603;-66
2021/08/12 23:07:18;;;;;;;20.70;11.70;;;;;;;18.07;59.05;99711.35;263546;1093;116201;-64
2021/08/12 23:12:24;;;;;;;22.17;11.23;;;;;;;17.96;59.63;99713.09;263619;1092;114911;-66
2021/08/12 23:17:27;;;;;;;16.73;11.10;;;;;;;17.87;59.48;99707.63;263670;1092;115236;-62